sensor_id;sensor_type;location;lat;lon;timestamp;pressure;altitude;pressure_sealevel;temperature;humidity
76050;BME280;64967;50.234;19.224;2023-12-29T00:00:20;75680.84;;;-143.90;100.00
76050;BME280;64967;50.234;19.224;2023-12-29T00:02:47;75680.84;;;-143.90;100.00
76050;BME280;64967;50.234;19.224;2023-12-29T00:05:14;75682.91;;;-143.90;100.00
76050;BME280;64967;50.234;19.224;2023-12-29T00:07:41;75676.69;;;-143.90;100.00
76050;BME280;64967;50.234;19.224;2023-12-29T00:10:08;75670.50;;;-143.90;100.00
76050;BME280;64967;50.234;19.224;2023-12-29T00:12:36;75676.69;;;-143.90;100.00
76050;BME280;64967;50.234;19.224;2023-12-29T00:15:03;75670.50;;;-143.90;100.00
76050;BME280;64967;50.234;19.224;2023-12-29T00:17:30;75680.84;;;-143.90;100.00
76050;BME280;64967;50.234;19.224;2023-12-29T00:19:56;75664.28;;;-143.90;100.00
76050;BME280;64967;50.234;19.224;2023-12-29T00:22:23;75668.44;;;-143.90;100.00
76050;BME280;64967;50.234;19.224;2023-12-29T00:24:51;75668.44;;;-143.90;100.00
76050;BME280;64967;50.234;19.224;2023-12-29T00:27:18;75664.28;;;-143.90;100.00
76050;BME280;64967;50.234;19.224;2023-12-29T00:29:45;75653.94;;;-143.90;100.00
76050;BME280;64967;50.234;19.224;2023-12-29T00:32:12;75656.03;;;-143.90;100.00
76050;BME280;64967;50.234;19.224;2023-12-29T00:34:39;75660.16;;;-143.90;100.00
76050;BME280;64967;50.234;19.224;2023-12-29T00:37:05;75656.03;;;-143.90;100.00
76050;BME280;64967;50.234;19.224;2023-12-29T00:39:33;75645.69;;;-143.90;100.00
76050;BME280;64967;50.234;19.224;2023-12-29T00:42:06;75645.69;;;-143.90;100.00
76050;BME280;64967;50.234;19.224;2023-12-29T00:44:33;75647.75;;;-143.90;100.00
76050;BME280;64967;50.234;19.224;2023-12-29T00:47:00;75643.63;;;-143.90;99.92
76050;BME280;64967;50.234;19.224;2023-12-29T00:49:27;75639.47;;;-143.90;99.60
76050;BME280;64967;50.234;19.224;2023-12-29T00:51:54;75643.63;;;-143.90;99.61
76050;BME280;64967;50.234;19.224;2023-12-29T00:54:20;75639.47;;;-143.90;99.61
76050;BME280;64967;50.234;19.224;2023-12-29T00:56:51;75643.63;;;-143.90;99.78
76050;BME280;64967;50.234;19.224;2023-12-29T00:59:19;75653.94;;;-143.90;99.94
76050;BME280;64967;50.234;19.224;2023-12-29T01:01:46;75645.69;;;-143.90;100.00
76050;BME280;64967;50.234;19.224;2023-12-29T01:04:13;75656.03;;;-143.90;100.00
76050;BME280;64967;50.234;19.224;2023-12-29T01:06:40;75645.69;;;-143.90;100.00
76050;BME280;64967;50.234;19.224;2023-12-29T01:09:07;75656.03;;;-143.90;100.00
76050;BME280;64967;50.234;19.224;2023-12-29T01:11:38;75651.88;;;-143.90;100.00
76050;BME280;64967;50.234;19.224;2023-12-29T01:14:05;75651.88;;;-143.90;100.00
76050;BME280;64967;50.234;19.224;2023-12-29T01:16:32;75643.63;;;-143.90;100.00
76050;BME280;64967;50.234;19.224;2023-12-29T01:18:59;75643.63;;;-143.90;99.98
76050;BME280;64967;50.234;19.224;2023-12-29T01:21:26;75635.34;;;-143.90;99.52
76050;BME280;64967;50.234;19.224;2023-12-29T01:23:52;75643.63;;;-143.90;99.82
76050;BME280;64967;50.234;19.224;2023-12-29T01:26:19;75645.69;;;-143.90;99.96
76050;BME280;64967;50.234;19.224;2023-12-29T01:28:46;75645.69;;;-143.90;100.00
76050;BME280;64967;50.234;19.224;2023-12-29T01:31:13;75635.34;;;-143.90;100.00
76050;BME280;64967;50.234;19.224;2023-12-29T01:33:40;75635.34;;;-143.90;100.00
76050;BME280;64967;50.234;19.224;2023-12-29T01:36:07;75627.06;;;-143.90;100.00
76050;BME280;64967;50.234;19.224;2023-12-29T01:38:43;75627.06;;;-143.90;100.00
76050;BME280;64967;50.234;19.224;2023-12-29T01:41:09;75635.34;;;-143.90;100.00
76050;BME280;64967;50.234;19.224;2023-12-29T01:43:36;75643.63;;;-143.90;100.00
76050;BME280;64967;50.234;19.224;2023-12-29T01:46:28;75651.88;;;-143.90;100.00
76050;BME280;64967;50.234;19.224;2023-12-29T01:48:55;75658.09;;;-143.90;100.00
76050;BME280;64967;50.234;19.224;2023-12-29T01:51:25;75653.94;;;-143.90;100.00
76050;BME280;64967;50.234;19.224;2023-12-29T01:53:54;75658.09;;;-143.90;100.00
76050;BME280;64967;50.234;19.224;2023-12-29T01:56:21;75666.34;;;-143.90;100.00
76050;BME280;64967;50.234;19.224;2023-12-29T01:58:49;75670.50;;;-143.90;100.00
76050;BME280;64967;50.234;19.224;2023-12-29T02:01:18;75676.69;;;-143.90;100.00
76050;BME280;64967;50.234;19.224;2023-12-29T02:03:45;75672.56;;;-143.90;100.00
76050;BME280;64967;50.234;19.224;2023-12-29T02:06:12;75672.56;;;-143.90;100.00
76050;BME280;64967;50.234;19.224;2023-12-29T02:08:43;75676.69;;;-143.90;100.00
76050;BME280;64967;50.234;19.224;2023-12-29T02:11:10;75676.69;;;-143.90;100.00
76050;BME280;64967;50.234;19.224;2023-12-29T02:13:37;75672.56;;;-143.90;100.00
76050;BME280;64967;50.234;19.224;2023-12-29T02:16:24;75674.63;;;-143.90;100.00
76050;BME280;64967;50.234;19.224;2023-12-29T02:18:54;75684.97;;;-143.90;100.00
76050;BME280;64967;50.234;19.224;2023-12-29T02:21:25;75684.97;;;-143.90;100.00
76050;BME280;64967;50.234;19.224;2023-12-29T02:23:52;75693.25;;;-143.90;100.00
76050;BME280;64967;50.234;19.224;2023-12-29T02:26:20;75703.56;;;-143.90;100.00
76050;BME280;64967;50.234;19.224;2023-12-29T02:28:59;75703.56;;;-143.90;100.00
76050;BME280;64967;50.234;19.224;2023-12-29T02:31:29;75707.72;;;-143.90;100.00
76050;BME280;64967;50.234;19.224;2023-12-29T02:33:58;75709.78;;;-143.90;100.00
76050;BME280;64967;50.234;19.224;2023-12-29T02:36:26;75709.78;;;-143.90;100.00
76050;BME280;64967;50.234;19.224;2023-12-29T02:38:54;75713.91;;;-143.90;100.00
76050;BME280;64967;50.234;19.224;2023-12-29T02:41:21;75709.78;;;-143.90;100.00
76050;BME280;64967;50.234;19.224;2023-12-29T02:43:47;75711.84;;;-143.90;100.00
76050;BME280;64967;50.234;19.224;2023-12-29T02:46:14;75709.78;;;-143.90;100.00
76050;BME280;64967;50.234;19.224;2023-12-29T02:48:41;75709.78;;;-143.90;100.00
76050;BME280;64967;50.234;19.224;2023-12-29T02:51:08;75713.91;;;-143.90;100.00
76050;BME280;64967;50.234;19.224;2023-12-29T02:53:34;75718.06;;;-143.90;100.00
76050;BME280;64967;50.234;19.224;2023-12-29T02:56:01;75713.91;;;-143.90;100.00
76050;BME280;64967;50.234;19.224;2023-12-29T02:58:28;75705.66;;;-143.90;100.00
76050;BME280;64967;50.234;19.224;2023-12-29T03:00:55;75707.72;;;-143.90;100.00
76050;BME280;64967;50.234;19.224;2023-12-29T03:03:21;75713.91;;;-143.90;100.00
76050;BME280;64967;50.234;19.224;2023-12-29T03:05:48;75705.66;;;-143.90;100.00
76050;BME280;64967;50.234;19.224;2023-12-29T03:08:15;75701.50;;;-143.90;100.00
76050;BME280;64967;50.234;19.224;2023-12-29T03:10:42;75697.38;;;-143.90;100.00
76050;BME280;64967;50.234;19.224;2023-12-29T03:13:08;75687.03;;;-143.90;100.00
76050;BME280;64967;50.234;19.224;2023-12-29T03:15:35;75680.84;;;-143.90;100.00
76050;BME280;64967;50.234;19.224;2023-12-29T03:18:02;75666.34;;;-143.90;98.75
76050;BME280;64967;50.234;19.224;2023-12-29T03:20:29;75666.34;;;-143.90;98.32
76050;BME280;64967;50.234;19.224;2023-12-29T03:22:56;75664.28;;;-143.90;97.18
76050;BME280;64967;50.234;19.224;2023-12-29T03:25:23;75653.94;;;-143.90;95.76
76050;BME280;64967;50.234;19.224;2023-12-29T03:27:50;75647.75;;;-143.90;94.30
76050;BME280;64967;50.234;19.224;2023-12-29T03:30:17;75639.47;;;-143.90;93.58
76050;BME280;64967;50.234;19.224;2023-12-29T03:32:43;75647.75;;;-143.90;92.80
76050;BME280;64967;50.234;19.224;2023-12-29T03:35:10;75639.47;;;-143.90;92.09
76050;BME280;64967;50.234;19.224;2023-12-29T03:37:37;75639.47;;;-143.90;91.27
76050;BME280;64967;50.234;19.224;2023-12-29T03:40:05;75647.75;;;-143.90;89.12
76050;BME280;64967;50.234;19.224;2023-12-29T03:42:32;75631.22;;;-143.90;87.40
76050;BME280;64967;50.234;19.224;2023-12-29T03:44:58;75633.28;;;-143.90;86.36
76050;BME280;64967;50.234;19.224;2023-12-29T03:47:25;75633.28;;;-143.90;85.33
76050;BME280;64967;50.234;19.224;2023-12-29T03:49:52;75622.94;;;-143.90;84.50
76050;BME280;64967;50.234;19.224;2023-12-29T03:52:18;75627.06;;;-143.90;84.35
76050;BME280;64967;50.234;19.224;2023-12-29T03:54:45;75625.00;;;-143.90;84.55
76050;BME280;64967;50.234;19.224;2023-12-29T03:57:13;75625.00;;;-143.90;84.45
76050;BME280;64967;50.234;19.224;2023-12-29T03:59:39;75631.22;;;-143.90;83.92
76050;BME280;64967;50.234;19.224;2023-12-29T04:02:06;75631.22;;;-143.90;83.66
76050;BME280;64967;50.234;19.224;2023-12-29T04:04:36;75633.28;;;-143.90;83.29
76050;BME280;64967;50.234;19.224;2023-12-29T04:07:04;75637.41;;;-143.90;83.43
76050;BME280;64967;50.234;19.224;2023-12-29T04:09:31;75643.63;;;-143.90;83.09
76050;BME280;64967;50.234;19.224;2023-12-29T04:11:57;75631.22;;;-143.90;83.04
76050;BME280;64967;50.234;19.224;2023-12-29T04:14:24;75639.47;;;-143.90;83.13
76050;BME280;64967;50.234;19.224;2023-12-29T04:16:51;75649.81;;;-143.90;83.17
76050;BME280;64967;50.234;19.224;2023-12-29T04:19:17;75656.03;;;-143.90;83.33
76050;BME280;64967;50.234;19.224;2023-12-29T04:21:44;75656.03;;;-143.90;83.23
76050;BME280;64967;50.234;19.224;2023-12-29T04:24:11;75664.28;;;-143.90;83.47
76050;BME280;64967;50.234;19.224;2023-12-29T04:26:37;75672.56;;;-143.90;84.12
76050;BME280;64967;50.234;19.224;2023-12-29T04:29:04;75674.63;;;-143.90;84.36
76050;BME280;64967;50.234;19.224;2023-12-29T04:31:31;75672.56;;;-143.90;84.24
76050;BME280;64967;50.234;19.224;2023-12-29T04:33:57;75664.28;;;-143.90;83.54
76050;BME280;64967;50.234;19.224;2023-12-29T04:36:24;75676.69;;;-143.90;84.00
76050;BME280;64967;50.234;19.224;2023-12-29T04:38:51;75668.44;;;-143.90;83.54
76050;BME280;64967;50.234;19.224;2023-12-29T04:41:17;75658.09;;;-143.90;83.47
76050;BME280;64967;50.234;19.224;2023-12-29T04:43:45;75649.81;;;-143.90;83.34
76050;BME280;64967;50.234;19.224;2023-12-29T04:46:11;75647.75;;;-143.90;83.08
76050;BME280;64967;50.234;19.224;2023-12-29T04:48:38;75639.47;;;-143.90;82.84
76050;BME280;64967;50.234;19.224;2023-12-29T04:51:05;75635.34;;;-143.90;82.81
76050;BME280;64967;50.234;19.224;2023-12-29T04:53:31;75627.06;;;-143.90;82.55
76050;BME280;64967;50.234;19.224;2023-12-29T04:55:58;75618.81;;;-143.90;82.18
76050;BME280;64967;50.234;19.224;2023-12-29T04:58:24;75627.06;;;-143.90;82.27
76050;BME280;64967;50.234;19.224;2023-12-29T05:00:51;75620.88;;;-143.90;82.36
76050;BME280;64967;50.234;19.224;2023-12-29T05:03:18;75625.00;;;-143.90;82.38
76050;BME280;64967;50.234;19.224;2023-12-29T05:05:45;75631.22;;;-143.90;82.24
76050;BME280;64967;50.234;19.224;2023-12-29T05:08:11;75608.47;;;-143.90;82.39
76050;BME280;64967;50.234;19.224;2023-12-29T05:10:38;75591.94;;;-143.90;81.71
76050;BME280;64967;50.234;19.224;2023-12-29T05:13:04;75583.66;;;-143.90;81.46
76050;BME280;64967;50.234;19.224;2023-12-29T05:15:31;75583.66;;;-143.90;81.86
76050;BME280;64967;50.234;19.224;2023-12-29T05:17:58;75583.66;;;-143.90;82.13
76050;BME280;64967;50.234;19.224;2023-12-29T05:20:25;75573.31;;;-143.90;81.96
76050;BME280;64967;50.234;19.224;2023-12-29T05:22:51;75567.13;;;-143.90;81.77
76050;BME280;64967;50.234;19.224;2023-12-29T05:25:18;75565.03;;;-143.90;81.56
76050;BME280;64967;50.234;19.224;2023-12-29T05:27:48;75548.50;;;-143.90;81.87
76050;BME280;64967;50.234;19.224;2023-12-29T05:30:15;75540.22;;;-143.90;81.92
76050;BME280;64967;50.234;19.224;2023-12-29T05:32:42;75538.16;;;-143.90;82.30
76050;BME280;64967;50.234;19.224;2023-12-29T05:35:09;75527.81;;;-143.90;82.27
76050;BME280;64967;50.234;19.224;2023-12-29T05:37:36;75515.41;;;-143.90;82.27
76050;BME280;64967;50.234;19.224;2023-12-29T05:40:03;75503.03;;;-143.90;82.14
76050;BME280;64967;50.234;19.224;2023-12-29T05:42:30;75503.03;;;-143.90;82.67
76050;BME280;64967;50.234;19.224;2023-12-29T05:44:57;75490.63;;;-143.90;82.66
76050;BME280;64967;50.234;19.224;2023-12-29T05:47:23;75478.22;;;-143.90;84.12
76050;BME280;64967;50.234;19.224;2023-12-29T05:49:50;75476.13;;;-143.90;84.51
76050;BME280;64967;50.234;19.224;2023-12-29T05:52:17;75480.28;;;-143.90;85.18
76050;BME280;64967;50.234;19.224;2023-12-29T05:54:44;75467.88;;;-143.90;86.46
76050;BME280;64967;50.234;19.224;2023-12-29T05:57:12;75463.72;;;-143.90;86.69
76050;BME280;64967;50.234;19.224;2023-12-29T05:59:39;75453.41;;;-143.90;86.09
76050;BME280;64967;50.234;19.224;2023-12-29T06:02:06;75449.25;;;-143.90;85.81
76050;BME280;64967;50.234;19.224;2023-12-29T06:04:32;75451.31;;;-143.90;86.74
76050;BME280;64967;50.234;19.224;2023-12-29T06:06:59;75449.25;;;-143.90;87.78
76050;BME280;64967;50.234;19.224;2023-12-29T06:09:26;75436.84;;;-143.90;88.35
76050;BME280;64967;50.234;19.224;2023-12-29T06:11:53;75424.44;;;-143.90;88.49
76050;BME280;64967;50.234;19.224;2023-12-29T06:14:19;75420.31;;;-143.90;88.33
76050;BME280;64967;50.234;19.224;2023-12-29T06:16:46;75416.19;;;-143.90;87.96
76050;BME280;64967;50.234;19.224;2023-12-29T06:19:14;75412.03;;;-143.90;87.61
76050;BME280;64967;50.234;19.224;2023-12-29T06:21:41;75407.91;;;-143.90;87.65
76050;BME280;64967;50.234;19.224;2023-12-29T06:24:11;75414.13;;;-143.90;87.82
76050;BME280;64967;50.234;19.224;2023-12-29T06:26:38;75409.97;;;-143.90;87.40
76050;BME280;64967;50.234;19.224;2023-12-29T06:29:10;75401.72;;;-143.90;86.97
76050;BME280;64967;50.234;19.224;2023-12-29T06:31:40;75401.72;;;-143.90;87.13
76050;BME280;64967;50.234;19.224;2023-12-29T06:34:08;75403.78;;;-143.90;86.76
76050;BME280;64967;50.234;19.224;2023-12-29T06:36:35;75403.78;;;-143.90;86.81
76050;BME280;64967;50.234;19.224;2023-12-29T06:39:02;75399.63;;;-143.90;86.88
76050;BME280;64967;50.234;19.224;2023-12-29T06:41:29;75399.63;;;-143.90;87.23
76050;BME280;64967;50.234;19.224;2023-12-29T06:43:55;75387.22;;;-143.90;86.96
76050;BME280;64967;50.234;19.224;2023-12-29T06:46:22;75395.50;;;-143.90;86.97
76050;BME280;64967;50.234;19.224;2023-12-29T06:48:49;75399.63;;;-143.90;86.59
76050;BME280;64967;50.234;19.224;2023-12-29T06:51:17;75412.03;;;-143.90;86.97
76050;BME280;64967;50.234;19.224;2023-12-29T06:53:47;75420.31;;;-143.90;87.33
76050;BME280;64967;50.234;19.224;2023-12-29T06:56:15;75428.59;;;-143.90;87.76
76050;BME280;64967;50.234;19.224;2023-12-29T06:58:42;75434.78;;;-143.90;87.79
76050;BME280;64967;50.234;19.224;2023-12-29T07:01:08;75443.06;;;-143.90;87.54
76050;BME280;64967;50.234;19.224;2023-12-29T07:03:36;75453.41;;;-143.90;87.86
76050;BME280;64967;50.234;19.224;2023-12-29T07:06:03;75455.47;;;-143.90;88.47
76050;BME280;64967;50.234;19.224;2023-12-29T07:08:29;75463.72;;;-143.90;88.50
76050;BME280;64967;50.234;19.224;2023-12-29T07:10:56;75463.72;;;-143.90;88.95
76050;BME280;64967;50.234;19.224;2023-12-29T07:13:23;75463.72;;;-143.90;88.85
76050;BME280;64967;50.234;19.224;2023-12-29T07:15:49;75449.25;;;-143.90;88.71
76050;BME280;64967;50.234;19.224;2023-12-29T07:18:16;75472.00;;;-143.90;89.52
76050;BME280;64967;50.234;19.224;2023-12-29T07:20:43;75469.94;;;-143.90;89.82
76050;BME280;64967;50.234;19.224;2023-12-29T07:23:09;75463.72;;;-143.90;89.50
76050;BME280;64967;50.234;19.224;2023-12-29T07:25:36;75461.66;;;-143.90;89.38
76050;BME280;64967;50.234;19.224;2023-12-29T07:28:03;75465.81;;;-143.90;89.49
76050;BME280;64967;50.234;19.224;2023-12-29T07:30:30;75453.41;;;-143.90;88.49
76050;BME280;64967;50.234;19.224;2023-12-29T07:32:57;75451.31;;;-143.90;88.51
76050;BME280;64967;50.234;19.224;2023-12-29T07:35:24;75443.06;;;-143.90;87.77
76050;BME280;64967;50.234;19.224;2023-12-29T07:37:51;75432.72;;;-143.90;87.36
76050;BME280;64967;50.234;19.224;2023-12-29T07:40:17;75428.59;;;-143.90;87.06
76050;BME280;64967;50.234;19.224;2023-12-29T07:42:45;75420.31;;;-143.90;86.42
76050;BME280;64967;50.234;19.224;2023-12-29T07:45:14;75412.03;;;-143.90;85.79
76050;BME280;64967;50.234;19.224;2023-12-29T07:47:40;75403.78;;;-143.90;85.58
76050;BME280;64967;50.234;19.224;2023-12-29T07:50:07;75397.56;;;-143.90;85.37
76050;BME280;64967;50.234;19.224;2023-12-29T07:52:34;75397.56;;;-143.90;85.03
76050;BME280;64967;50.234;19.224;2023-12-29T07:55:01;75391.38;;;-143.90;84.51
76050;BME280;64967;50.234;19.224;2023-12-29T07:57:27;75395.50;;;-143.90;83.63
76050;BME280;64967;50.234;19.224;2023-12-29T07:59:54;75381.03;;;-143.90;83.38
76050;BME280;64967;50.234;19.224;2023-12-29T08:02:21;75385.16;;;-143.90;82.98
76050;BME280;64967;50.234;19.224;2023-12-29T08:04:48;75370.69;;;-143.90;82.34
76050;BME280;64967;50.234;19.224;2023-12-29T08:07:15;75368.63;;;-143.90;81.66
76050;BME280;64967;50.234;19.224;2023-12-29T08:09:42;75362.44;;;-143.90;81.21
76050;BME280;64967;50.234;19.224;2023-12-29T08:12:08;75364.50;;;-143.90;81.43
76050;BME280;64967;50.234;19.224;2023-12-29T08:14:35;75358.28;;;-143.90;80.84
76050;BME280;64967;50.234;19.224;2023-12-29T08:17:02;75343.81;;;-143.90;80.97
76050;BME280;64967;50.234;19.224;2023-12-29T08:19:28;75333.47;;;-143.90;80.42
76050;BME280;64967;50.234;19.224;2023-12-29T08:21:55;75339.69;;;-143.90;80.11
76050;BME280;64967;50.234;19.224;2023-12-29T08:24:23;75325.22;;;-143.90;79.62
76050;BME280;64967;50.234;19.224;2023-12-29T08:26:49;75321.06;;;-143.90;78.75
76050;BME280;64967;50.234;19.224;2023-12-29T08:29:16;75312.81;;;-143.90;78.89
76050;BME280;64967;50.234;19.224;2023-12-29T08:31:44;75316.94;;;-143.90;78.37
76050;BME280;64967;50.234;19.224;2023-12-29T08:34:11;75298.34;;;-143.90;77.49
76050;BME280;64967;50.234;19.224;2023-12-29T08:36:39;75304.53;;;-143.90;77.28
76050;BME280;64967;50.234;19.224;2023-12-29T08:39:05;75298.34;;;-143.90;76.44
76050;BME280;64967;50.234;19.224;2023-12-29T08:41:32;75308.66;;;-143.90;75.24
76050;BME280;64967;50.234;19.224;2023-12-29T08:43:59;75296.25;;;-143.90;75.96
76050;BME280;64967;50.234;19.224;2023-12-29T08:46:25;75275.59;;;-143.90;75.00
76050;BME280;64967;50.234;19.224;2023-12-29T08:48:52;75277.66;;;-143.90;74.99
76050;BME280;64967;50.234;19.224;2023-12-29T08:51:19;75277.66;;;-143.90;75.04
76050;BME280;64967;50.234;19.224;2023-12-29T08:53:45;75275.59;;;-143.90;73.60
76050;BME280;64967;50.234;19.224;2023-12-29T08:56:12;75256.97;;;-143.90;73.39
76050;BME280;64967;50.234;19.224;2023-12-29T08:58:40;75256.97;;;-143.90;73.05
76050;BME280;64967;50.234;19.224;2023-12-29T09:01:08;75246.66;;;-143.90;72.48
76050;BME280;64967;50.234;19.224;2023-12-29T09:03:34;75230.09;;;-143.90;72.02
76050;BME280;64967;50.234;19.224;2023-12-29T09:06:01;75225.97;;;-143.90;71.69
76050;BME280;64967;50.234;19.224;2023-12-29T09:08:29;75236.31;;;-143.90;72.43
76050;BME280;64967;50.234;19.224;2023-12-29T09:10:56;75223.91;;;-143.90;71.99
76050;BME280;64967;50.234;19.224;2023-12-29T09:13:22;75215.63;;;-143.90;71.23
76050;BME280;64967;50.234;19.224;2023-12-29T09:15:51;75205.28;;;-143.90;70.94
76050;BME280;64967;50.234;19.224;2023-12-29T09:18:18;75197.03;;;-143.90;70.90
76050;BME280;64967;50.234;19.224;2023-12-29T09:20:45;75180.50;;;-143.90;70.48
76050;BME280;64967;50.234;19.224;2023-12-29T09:23:11;75172.22;;;-143.90;70.74
76050;BME280;64967;50.234;19.224;2023-12-29T09:25:38;75163.94;;;-143.90;70.56
76050;BME280;64967;50.234;19.224;2023-12-29T09:28:05;75155.69;;;-143.90;69.88
76050;BME280;64967;50.234;19.224;2023-12-29T09:30:32;75157.75;;;-143.90;69.48
76050;BME280;64967;50.234;19.224;2023-12-29T09:32:58;75151.53;;;-143.90;68.59
76050;BME280;64967;50.234;19.224;2023-12-29T09:35:25;75139.16;;;-143.90;69.36
76050;BME280;64967;50.234;19.224;2023-12-29T09:37:52;75122.59;;;-143.90;68.76
76050;BME280;64967;50.234;19.224;2023-12-29T09:40:19;75110.19;;;-143.90;67.12
76050;BME280;64967;50.234;19.224;2023-12-29T09:42:48;75106.06;;;-143.90;68.04
76050;BME280;64967;50.234;19.224;2023-12-29T09:45:22;75097.78;;;-143.90;68.28
76050;BME280;64967;50.234;19.224;2023-12-29T09:47:51;75110.19;;;-143.90;67.15
76050;BME280;64967;50.234;19.224;2023-12-29T09:50:19;75104.00;;;-143.90;67.64
76050;BME280;64967;50.234;19.224;2023-12-29T09:52:48;75093.66;;;-143.90;66.57
76050;BME280;64967;50.234;19.224;2023-12-29T09:55:17;75093.66;;;-143.90;67.42
76050;BME280;64967;50.234;19.224;2023-12-29T09:57:44;75079.19;;;-143.90;66.29
76050;BME280;64967;50.234;19.224;2023-12-29T10:00:12;75077.13;;;-143.90;66.37
76050;BME280;64967;50.234;19.224;2023-12-29T10:02:39;75062.66;;;-143.90;66.60
76050;BME280;64967;50.234;19.224;2023-12-29T10:05:05;75070.91;;;-143.90;66.60
76050;BME280;64967;50.234;19.224;2023-12-29T10:07:36;75068.84;;;-143.90;66.54
76050;BME280;64967;50.234;19.224;2023-12-29T10:10:05;75066.78;;;-143.90;67.44
76050;BME280;64967;50.234;19.224;2023-12-29T10:12:36;75068.84;;;-143.90;67.87
76050;BME280;64967;50.234;19.224;2023-12-29T10:15:17;75068.84;;;-143.90;66.69
76050;BME280;64967;50.234;19.224;2023-12-29T10:20:43;75089.53;;;-143.90;66.44
76050;BME280;64967;50.234;19.224;2023-12-29T10:24:03;75085.38;;;-143.90;66.81
76050;BME280;64967;50.234;19.224;2023-12-29T10:26:02;75070.91;;;-143.90;67.12
76050;BME280;64967;50.234;19.224;2023-12-29T10:28:30;75066.78;;;-143.90;66.86
76050;BME280;64967;50.234;19.224;2023-12-29T10:30:56;75075.06;;;-143.90;66.28
76050;BME280;64967;50.234;19.224;2023-12-29T10:33:24;75056.44;;;-143.90;66.73
76050;BME280;64967;50.234;19.224;2023-12-29T10:36:01;75058.50;;;-143.90;65.95
76050;BME280;64967;50.234;19.224;2023-12-29T10:38:30;75050.25;;;-143.90;66.58
76050;BME280;64967;50.234;19.224;2023-12-29T10:41:17;75066.78;;;-143.90;66.96
76050;BME280;64967;50.234;19.224;2023-12-29T10:43:46;75060.59;;;-143.90;66.87
76050;BME280;64967;50.234;19.224;2023-12-29T10:46:21;75066.78;;;-143.90;67.05
76050;BME280;64967;50.234;19.224;2023-12-29T10:48:48;75056.44;;;-143.90;65.80
76050;BME280;64967;50.234;19.224;2023-12-29T10:51:15;75058.50;;;-143.90;65.85
76050;BME280;64967;50.234;19.224;2023-12-29T10:53:55;75052.31;;;-143.90;65.61
76050;BME280;64967;50.234;19.224;2023-12-29T10:56:23;75050.25;;;-143.90;65.65
76050;BME280;64967;50.234;19.224;2023-12-29T10:59:00;75058.50;;;-143.90;65.97
76050;BME280;64967;50.234;19.224;2023-12-29T11:01:29;75050.25;;;-143.90;65.16
76050;BME280;64967;50.234;19.224;2023-12-29T11:04:01;75066.78;;;-143.90;65.86
76050;BME280;64967;50.234;19.224;2023-12-29T11:06:30;75052.31;;;-143.90;65.50
76050;BME280;64967;50.234;19.224;2023-12-29T11:09:05;75037.84;;;-143.90;65.64
76050;BME280;64967;50.234;19.224;2023-12-29T11:11:34;75037.84;;;-143.90;64.96
76050;BME280;64967;50.234;19.224;2023-12-29T11:14:02;75035.78;;;-143.90;65.42
76050;BME280;64967;50.234;19.224;2023-12-29T11:16:30;75054.38;;;-143.90;65.76
76050;BME280;64967;50.234;19.224;2023-12-29T11:18:58;75052.31;;;-143.90;65.79
76050;BME280;64967;50.234;19.224;2023-12-29T11:21:26;75056.44;;;-143.90;65.60
76050;BME280;64967;50.234;19.224;2023-12-29T11:23:54;75056.44;;;-143.90;65.88
76050;BME280;64967;50.234;19.224;2023-12-29T11:26:21;75052.31;;;-143.90;65.10
76050;BME280;64967;50.234;19.224;2023-12-29T11:28:47;75056.44;;;-143.90;66.45
76050;BME280;64967;50.234;19.224;2023-12-29T11:31:17;75044.03;;;-143.90;65.56
76050;BME280;64967;50.234;19.224;2023-12-29T11:33:55;75017.16;;;-143.90;65.61
76050;BME280;64967;50.234;19.224;2023-12-29T11:36:29;75025.44;;;-143.90;64.79
76050;BME280;64967;50.234;19.224;2023-12-29T11:44:31;75006.84;;;-143.90;64.32
76050;BME280;64967;50.234;19.224;2023-12-29T11:46:59;75023.38;;;-143.90;64.43
76050;BME280;64967;50.234;19.224;2023-12-29T11:49:59;75027.50;;;-143.90;64.03
76050;BME280;64967;50.234;19.224;2023-12-29T11:52:39;75021.31;;;-143.90;63.58
76050;BME280;64967;50.234;19.224;2023-12-29T11:55:15;75031.63;;;-143.90;63.56
76050;BME280;64967;50.234;19.224;2023-12-29T11:57:43;75023.38;;;-143.90;63.87
76050;BME280;64967;50.234;19.224;2023-12-29T12:00:11;75027.50;;;-143.90;63.92
76050;BME280;64967;50.234;19.224;2023-12-29T12:02:38;75019.22;;;-143.90;63.08
76050;BME280;64967;50.234;19.224;2023-12-29T12:05:05;75023.38;;;-143.90;63.73
76050;BME280;64967;50.234;19.224;2023-12-29T12:12:48;75037.84;;;-143.90;63.66
76050;BME280;64967;50.234;19.224;2023-12-29T12:20:23;75015.09;;;-143.90;63.38
76050;BME280;64967;50.234;19.224;2023-12-29T12:22:57;75023.38;;;-143.90;63.28
76050;BME280;64967;50.234;19.224;2023-12-29T12:25:28;75039.91;;;-143.90;64.23
76050;BME280;64967;50.234;19.224;2023-12-29T12:27:56;75050.25;;;-143.90;64.30
76050;BME280;64967;50.234;19.224;2023-12-29T12:30:23;75039.91;;;-143.90;63.42
76050;BME280;64967;50.234;19.224;2023-12-29T12:33:03;75041.97;;;-143.90;63.33
76050;BME280;64967;50.234;19.224;2023-12-29T12:35:32;75062.66;;;-143.90;64.52
76050;BME280;64967;50.234;19.224;2023-12-29T12:40:36;75068.84;;;-143.90;64.71
76050;BME280;64967;50.234;19.224;2023-12-29T12:43:03;75062.66;;;-143.90;64.53
76050;BME280;64967;50.234;19.224;2023-12-29T12:45:34;75052.31;;;-143.90;64.34
76050;BME280;64967;50.234;19.224;2023-12-29T12:48:13;75060.59;;;-143.90;64.53
76050;BME280;64967;50.234;19.224;2023-12-29T12:50:44;75054.38;;;-143.90;64.09
76050;BME280;64967;50.234;19.224;2023-12-29T12:53:12;75072.97;;;-143.90;65.08